createdAt,value
2022-09-23T00:00:05.357Z,82.77
2022-09-23T00:02:52.301Z,83.22
2022-09-23T00:05:40.337Z,83.19
2022-09-23T00:08:26.250Z,82.84
2022-09-23T00:11:22.823Z,82.95
2022-09-23T00:14:09.449Z,82.78
2022-09-23T00:16:56.168Z,82.39
2022-09-23T00:19:41.538Z,82.53
2022-09-23T00:22:26.931Z,82.95
2022-09-23T00:25:12.849Z,83.05
2022-09-23T00:27:58.981Z,82.97
2022-09-23T00:30:44.805Z,82.48
2022-09-23T00:33:30.245Z,82.41
2022-09-23T00:36:16.453Z,82.65
2022-09-23T00:39:04.406Z,82.39
2022-09-23T00:41:50.457Z,82.90
2022-09-23T00:44:44.301Z,82.89
2022-09-23T00:47:39.406Z,82.71
2022-09-23T00:50:36.145Z,82.56
2022-09-23T00:53:26.555Z,82.90
2022-09-23T00:56:13.970Z,82.67
2022-09-23T00:59:00.821Z,82.80
2022-09-23T01:01:49.634Z,82.48
2022-09-23T01:04:35.636Z,82.69
2022-09-23T01:07:21.817Z,82.76
2022-09-23T01:10:08.923Z,82.91
2022-09-23T01:13:35.822Z,82.64
2022-09-23T01:16:36.727Z,82.39
2022-09-23T01:19:59.839Z,82.26
2022-09-23T01:23:05.565Z,82.29
2022-09-23T01:25:56.800Z,82.38
2022-09-23T01:29:10.981Z,82.68
2022-09-23T01:32:03.159Z,82.88
2022-09-23T01:34:48.703Z,82.99
2022-09-23T01:37:50.288Z,83.12
2022-09-23T01:40:51.651Z,83.20
2022-09-23T01:43:59.855Z,83.52
2022-09-23T01:46:53.991Z,83.57
2022-09-23T01:49:50.998Z,83.67
2022-09-23T01:52:47.176Z,83.40
2022-09-23T01:55:39.768Z,84.01
2022-09-23T01:58:30.878Z,83.95
2022-09-23T02:01:26.882Z,83.44
2022-09-23T02:04:19.642Z,83.71
2022-09-23T02:07:44.368Z,83.66
2022-09-23T02:10:37.394Z,83.38
2022-09-23T02:13:32.632Z,83.69
2022-09-23T02:16:28.021Z,84.04
2022-09-23T02:19:33.832Z,83.89
2022-09-23T02:22:42.681Z,84.39
2022-09-23T02:25:35.205Z,84.33
2022-09-23T02:28:30.979Z,84.15
2022-09-23T02:31:27.839Z,83.86
2022-09-23T02:34:23.449Z,83.93
2022-09-23T02:37:51.292Z,84.23
2022-09-23T02:40:58.773Z,84.46
2022-09-23T02:44:01.149Z,84.03
2022-09-23T02:46:46.973Z,84.21
2022-09-23T02:49:34.074Z,84.10
2022-09-23T02:52:19.696Z,84.43
2022-09-23T02:55:09.055Z,84.58
2022-09-23T02:57:54.748Z,84.79
2022-09-23T03:01:07.601Z,85.00
2022-09-23T03:04:06.817Z,84.56
2022-09-23T03:07:06.214Z,84.08
2022-09-23T03:10:00.677Z,84.33
2022-09-23T03:13:02.283Z,84.50
2022-09-23T03:16:00.521Z,84.65
2022-09-23T03:18:56.008Z,85.13
2022-09-23T03:21:46.850Z,85.14
2022-09-23T03:24:34.993Z,84.90
2022-09-23T03:27:25.674Z,85.19
2022-09-23T03:30:13.746Z,84.97
2022-09-23T03:33:00.956Z,85.22
2022-09-23T03:36:13.107Z,84.98
2022-09-23T03:39:07.089Z,84.66
2022-09-23T03:41:55.131Z,84.48
2022-09-23T03:44:44.518Z,85.09
2022-09-23T03:47:31.017Z,84.75
2022-09-23T03:50:20.882Z,84.91
2022-09-23T03:53:07.006Z,84.43
2022-09-23T03:55:52.625Z,84.98
2022-09-23T03:58:38.328Z,84.83
2022-09-23T04:01:23.940Z,85.19
2022-09-23T04:04:09.890Z,85.58
2022-09-23T04:06:58.324Z,85.29
2022-09-23T04:09:44.814Z,85.57
2022-09-23T04:12:30.130Z,85.64
2022-09-23T04:15:15.840Z,85.19
2022-09-23T04:18:01.369Z,85.26
2022-09-23T04:20:46.897Z,85.06
2022-09-23T04:23:32.651Z,84.81
2022-09-23T04:26:19.250Z,84.44
2022-09-23T04:29:05.230Z,84.65
2022-09-23T04:31:51.743Z,84.91
2022-09-23T04:34:37.112Z,84.45
2022-09-23T04:37:22.556Z,84.90
2022-09-23T04:40:08.791Z,84.66
2022-09-23T04:42:54.608Z,84.52
2022-09-23T04:45:40.086Z,83.88
2022-09-23T04:48:25.665Z,83.92
2022-09-23T04:51:21.836Z,84.37
2022-09-23T04:54:07.252Z,84.41
2022-09-23T04:56:53.005Z,84.72
2022-09-23T04:59:38.806Z,84.56
2022-09-23T05:02:24.954Z,85.21
2022-09-23T05:05:10.876Z,84.56
2022-09-23T05:07:57.011Z,84.31
2022-09-23T05:10:42.680Z,84.65
2022-09-23T05:13:28.394Z,84.40
2022-09-23T05:16:14.769Z,84.73
2022-09-23T05:19:01.115Z,84.70
2022-09-23T05:21:46.519Z,84.76
2022-09-23T05:24:32.563Z,84.73
2022-09-23T05:27:18.333Z,85.13
2022-09-23T05:30:04.083Z,84.69
2022-09-23T05:32:50.131Z,84.63
2022-09-23T05:35:35.672Z,84.60
2022-09-23T05:38:21.513Z,84.55
2022-09-23T05:41:09.597Z,85.07
2022-09-23T05:43:56.517Z,84.61
2022-09-23T05:46:42.966Z,84.69
2022-09-23T05:49:48.252Z,85.08
2022-09-23T05:52:34.889Z,84.67
2022-09-23T05:55:20.493Z,85.21
2022-09-23T05:58:06.239Z,85.51
2022-09-23T06:00:52.031Z,85.32
2022-09-23T06:03:38.097Z,85.31
2022-09-23T06:06:31.106Z,85.52
2022-09-23T06:09:16.866Z,85.65
2022-09-23T06:12:02.282Z,85.68
2022-09-23T06:14:48.782Z,85.72
2022-09-23T06:17:34.257Z,84.80
2022-09-23T06:20:19.757Z,84.86
2022-09-23T06:23:11.112Z,84.80
2022-09-23T06:26:05.151Z,85.38
2022-09-23T06:28:50.557Z,85.62
2022-09-23T06:31:36.155Z,86.23
2022-09-23T06:34:22.409Z,85.64
2022-09-23T06:37:17.767Z,85.68
2022-09-23T06:40:04.524Z,86.05
2022-09-23T06:43:00.764Z,86.08
2022-09-23T06:45:46.684Z,85.01
2022-09-23T06:48:35.209Z,85.25
2022-09-23T06:51:21.856Z,85.69
2022-09-23T06:54:07.681Z,85.54
2022-09-23T06:56:53.615Z,85.39
2022-09-23T06:59:38.917Z,84.85
2022-09-23T07:02:24.704Z,84.86
2022-09-23T07:05:10.834Z,84.92
2022-09-23T07:07:56.484Z,84.91
2022-09-23T07:10:41.928Z,85.18
2022-09-23T07:13:33.670Z,85.24
2022-09-23T07:16:19.332Z,85.57
2022-09-23T07:19:05.409Z,85.49
2022-09-23T07:21:51.276Z,85.40
2022-09-23T07:24:37.457Z,85.08
2022-09-23T07:27:25.938Z,84.47
2022-09-23T07:30:22.582Z,84.83
2022-09-23T07:33:27.278Z,84.78
2022-09-23T07:36:19.032Z,85.50
2022-09-23T07:39:05.234Z,85.37
2022-09-23T07:41:51.895Z,85.27
2022-09-23T07:44:37.322Z,85.48
2022-09-23T07:47:23.565Z,85.48
2022-09-23T07:50:13.521Z,85.37
2022-09-23T07:52:59.699Z,85.30
2022-09-23T07:55:55.542Z,85.38
2022-09-23T07:58:41.308Z,84.78
2022-09-23T08:01:29.470Z,84.78
2022-09-23T08:04:22.219Z,83.73
2022-09-23T08:07:09.120Z,84.11
2022-09-23T08:09:54.606Z,84.36
2022-09-23T08:12:40.266Z,84.50
2022-09-23T08:15:32.118Z,84.77
2022-09-23T08:18:17.748Z,84.19
2022-09-23T08:21:03.965Z,84.16
2022-09-23T08:23:49.546Z,84.10
2022-09-23T08:26:35.621Z,84.42
2022-09-23T08:29:23.102Z,84.15
2022-09-23T08:32:08.735Z,82.83
2022-09-23T08:34:54.183Z,82.40
2022-09-23T08:37:39.754Z,82.23
2022-09-23T08:40:25.149Z,82.55
2022-09-23T08:43:32.412Z,82.35
2022-09-23T08:46:26.207Z,82.56
2022-09-23T08:49:17.274Z,82.25
2022-09-23T08:52:18.228Z,82.01
2022-09-23T08:55:04.825Z,81.71
2022-09-23T08:58:24.809Z,82.08
2022-09-23T09:01:42.090Z,82.71
2022-09-23T09:04:35.790Z,82.19
2022-09-23T09:07:37.968Z,82.96
2022-09-23T09:10:26.849Z,82.37
2022-09-23T09:13:31.130Z,81.86
2022-09-23T09:16:48.310Z,82.69
2022-09-23T09:19:52.608Z,82.17
2022-09-23T09:22:44.391Z,82.26
2022-09-23T09:25:46.233Z,82.33
2022-09-23T09:28:49.189Z,82.09
2022-09-23T09:31:39.804Z,81.62
2022-09-23T09:34:41.319Z,81.27
2022-09-23T09:37:36.927Z,80.08
2022-09-23T09:40:22.327Z,79.34
2022-09-23T09:43:07.618Z,79.58
2022-09-23T09:46:08.842Z,78.89
2022-09-23T09:49:28.117Z,78.49
2022-09-23T09:52:29.596Z,78.57
2022-09-23T09:55:26.602Z,78.50
2022-09-23T09:58:16.482Z,77.94
2022-09-23T10:01:02.501Z,77.00
2022-09-23T10:03:49.478Z,77.71
2022-09-23T10:06:36.785Z,77.82
2022-09-23T10:09:32.914Z,77.84
2022-09-23T10:12:21.429Z,78.36
2022-09-23T10:15:27.452Z,78.04
2022-09-23T10:18:28.431Z,77.17
2022-09-23T10:21:17.674Z,77.91
2022-09-23T10:24:08.045Z,77.33
2022-09-23T10:27:02.372Z,78.46
2022-09-23T10:29:48.477Z,75.13
2022-09-23T10:32:45.038Z,76.95
2022-09-23T10:35:34.500Z,76.34
2022-09-23T10:38:19.719Z,74.07
2022-09-23T10:41:28.137Z,75.40
2022-09-23T10:44:56.556Z,75.21
2022-09-23T10:47:48.321Z,75.02
2022-09-23T10:50:48.667Z,74.95
2022-09-23T10:54:00.579Z,75.99
2022-09-23T10:56:51.641Z,77.13
2022-09-23T11:00:04.650Z,76.88
2022-09-23T11:03:08.860Z,77.96
2022-09-23T11:06:00.880Z,78.22
2022-09-23T11:09:25.201Z,77.87
2022-09-23T11:12:40.018Z,78.38
2022-09-23T11:15:59.537Z,78.27
2022-09-23T11:18:48.282Z,78.84
2022-09-23T11:21:59.287Z,79.39
2022-09-23T11:25:06.774Z,80.45
2022-09-23T11:28:17.926Z,80.88
2022-09-23T11:31:14.775Z,82.15
2022-09-23T11:34:18.704Z,82.76
2022-09-23T11:37:15.261Z,82.26
2022-09-23T11:40:07.236Z,81.85
2022-09-23T11:43:31.439Z,81.83
2022-09-23T11:46:32.343Z,81.75
2022-09-23T11:49:40.234Z,81.62
2022-09-23T11:52:36.724Z,81.52
2022-09-23T11:55:31.822Z,81.83
2022-09-23T11:58:26.253Z,81.69
2022-09-23T12:01:32.517Z,82.05
2022-09-23T12:04:54.741Z,83.32
2022-09-23T12:08:03.712Z,82.10
2022-09-23T12:11:09.508Z,80.60
2022-09-23T12:14:01.707Z,80.01
2022-09-23T12:17:20.370Z,80.81
2022-09-23T12:20:16.157Z,81.90
2022-09-23T12:23:32.730Z,79.22
2022-09-23T12:26:24.053Z,79.09
2022-09-23T12:29:14.420Z,80.24
2022-09-23T12:32:01.246Z,76.11
2022-09-23T12:34:52.107Z,77.18
2022-09-23T12:37:38.867Z,75.81
2022-09-23T12:40:31.682Z,77.13
2022-09-23T12:43:18.753Z,77.68
2022-09-23T12:46:26.243Z,75.19
2022-09-23T12:49:44.812Z,77.34
2022-09-23T12:52:33.623Z,75.62
2022-09-23T12:55:23.228Z,74.28
2022-09-23T12:58:57.751Z,75.06
2022-09-23T13:01:44.476Z,74.42
2022-09-23T13:05:02.259Z,73.85
2022-09-23T13:07:50.013Z,75.40
2022-09-23T13:10:44.927Z,74.52
2022-09-23T13:13:33.950Z,73.63
2022-09-23T13:16:40.214Z,72.09
2022-09-23T13:19:26.207Z,70.36
2022-09-23T13:22:13.547Z,70.44
2022-09-23T13:25:09.109Z,70.67
2022-09-23T13:27:57.667Z,70.10
2022-09-23T13:30:52.201Z,69.68
2022-09-23T13:33:43.884Z,67.76
2022-09-23T13:36:29.800Z,68.00
2022-09-23T13:39:26.978Z,68.38
2022-09-23T13:42:27.147Z,67.92
2022-09-23T13:45:23.873Z,69.70
2022-09-23T13:48:15.422Z,70.28
2022-09-23T13:51:10.098Z,70.25
2022-09-23T13:53:57.651Z,69.19
2022-09-23T13:56:49.306Z,69.25
2022-09-23T13:59:41.571Z,69.48
2022-09-23T14:02:28.810Z,69.42
2022-09-23T14:05:22.946Z,68.21
2022-09-23T14:08:08.653Z,69.82
2022-09-23T14:10:55.387Z,72.04
2022-09-23T14:13:43.160Z,72.46
2022-09-23T14:16:29.925Z,74.10
2022-09-23T14:19:21.892Z,74.50
2022-09-23T14:22:23.490Z,75.24
2022-09-23T14:25:14.678Z,75.82
2022-09-23T14:28:01.188Z,74.20
2022-09-23T14:30:48.788Z,75.80
2022-09-23T14:33:40.925Z,76.48
2022-09-23T14:36:45.086Z,77.12
2022-09-23T14:39:30.793Z,76.98
2022-09-23T14:42:17.098Z,77.31
2022-09-23T14:45:05.721Z,77.34
2022-09-23T14:47:59.191Z,77.01
2022-09-23T14:51:07.659Z,77.62
2022-09-23T14:53:53.207Z,77.77
2022-09-23T14:56:43.998Z,76.70
2022-09-23T14:59:35.804Z,76.48
2022-09-23T15:02:32.686Z,76.50
2022-09-23T15:05:22.906Z,77.46
2022-09-23T15:08:12.097Z,77.38
2022-09-23T15:10:58.502Z,78.00
2022-09-23T15:13:49.485Z,78.20
2022-09-23T15:16:35.417Z,78.54
2022-09-23T15:19:23.752Z,78.56
2022-09-23T15:22:10.363Z,78.32
2022-09-23T15:25:29.988Z,78.37
2022-09-23T15:28:19.285Z,77.55
2022-09-23T15:31:05.864Z,76.87
2022-09-23T15:33:52.270Z,76.90
2022-09-23T15:36:38.822Z,77.25
2022-09-23T15:39:35.526Z,76.83
2022-09-23T15:42:21.905Z,75.68
2022-09-23T15:45:11.059Z,75.03
2022-09-23T15:48:01.082Z,74.68
2022-09-23T15:50:47.160Z,75.46
2022-09-23T15:53:35.768Z,75.87
2022-09-23T15:56:23.033Z,76.85
2022-09-23T15:59:09.121Z,77.01
2022-09-23T16:01:57.200Z,77.15
2022-09-23T16:04:42.915Z,77.41
2022-09-23T16:07:28.986Z,77.90
2022-09-23T16:10:17.013Z,77.74
2022-09-23T16:13:07.984Z,77.63
2022-09-23T16:15:54.391Z,77.62
2022-09-23T16:18:44.067Z,77.40
2022-09-23T16:21:30.334Z,77.42
2022-09-23T16:24:18.895Z,77.60
2022-09-23T16:27:08.426Z,77.40
2022-09-23T16:29:54.393Z,77.35
2022-09-23T16:32:39.928Z,77.68
2022-09-23T16:35:27.498Z,77.07
2022-09-23T16:38:13.868Z,76.95
2022-09-23T16:41:00.938Z,76.66
2022-09-23T16:43:47.189Z,76.73
2022-09-23T16:46:33.725Z,76.49
2022-09-23T16:49:19.611Z,76.25
2022-09-23T16:52:05.775Z,76.34
2022-09-23T16:54:52.528Z,76.66
2022-09-23T16:57:39.785Z,76.63
2022-09-23T17:00:43.767Z,76.92
2022-09-23T17:03:41.527Z,76.81
2022-09-23T17:06:30.172Z,76.43
2022-09-23T17:09:20.491Z,76.55
2022-09-23T17:12:18.042Z,76.61
2022-09-23T17:15:06.285Z,76.40
2022-09-23T17:17:51.904Z,76.67
2022-09-23T17:20:38.881Z,77.00
2022-09-23T17:23:26.406Z,76.70
2022-09-23T17:26:13.042Z,76.83
2022-09-23T17:28:59.709Z,76.35
2022-09-23T17:31:46.628Z,76.55
2022-09-23T17:34:33.541Z,76.03
2022-09-23T17:37:20.077Z,76.20
2022-09-23T17:40:06.614Z,76.46
2022-09-23T17:42:55.863Z,76.37
2022-09-23T17:45:41.642Z,76.16
2022-09-23T17:48:28.075Z,76.32
2022-09-23T17:51:16.175Z,76.58
2022-09-23T17:54:01.633Z,75.83
2022-09-23T17:56:47.146Z,76.20
2022-09-23T17:59:32.741Z,76.31
2022-09-23T18:02:19.938Z,76.73
2022-09-23T18:05:08.024Z,76.60
2022-09-23T18:07:54.959Z,76.62
2022-09-23T18:10:40.300Z,76.59
2022-09-23T18:13:25.914Z,76.83
2022-09-23T18:16:11.814Z,76.97
2022-09-23T18:19:00.133Z,76.94
2022-09-23T18:21:49.658Z,76.89
2022-09-23T18:24:39.888Z,77.06
2022-09-23T18:27:25.759Z,76.99
2022-09-23T18:30:12.458Z,77.14
2022-09-23T18:32:59.858Z,76.98
2022-09-23T18:35:45.842Z,77.19
2022-09-23T18:38:31.585Z,77.13
2022-09-23T18:41:18.433Z,77.14
2022-09-23T18:44:04.646Z,77.28
2022-09-23T18:46:50.367Z,76.87
2022-09-23T18:49:54.572Z,77.12
2022-09-23T18:52:40.042Z,77.16
2022-09-23T18:55:26.722Z,77.17
2022-09-23T18:58:13.368Z,77.48
2022-09-23T19:01:09.944Z,77.01
2022-09-23T19:03:56.999Z,76.98
2022-09-23T19:06:42.943Z,77.42
2022-09-23T19:09:28.362Z,77.50
2022-09-23T19:12:15.942Z,77.41
2022-09-23T19:15:04.745Z,77.50
2022-09-23T19:17:50.314Z,77.67
2022-09-23T19:20:35.732Z,77.29
2022-09-23T19:23:21.402Z,77.28
2022-09-23T19:26:10.451Z,77.19
2022-09-23T19:28:57.565Z,76.88
2022-09-23T19:31:43.977Z,76.65
2022-09-23T19:34:30.793Z,77.10
2022-09-23T19:37:17.105Z,77.29
2022-09-23T19:40:03.912Z,77.20
2022-09-23T19:42:54.452Z,77.15
2022-09-23T19:45:41.486Z,77.14
2022-09-23T19:48:28.984Z,77.25
2022-09-23T19:51:14.969Z,77.51
2022-09-23T19:54:02.385Z,77.67
2022-09-23T19:56:49.764Z,77.15
2022-09-23T19:59:35.148Z,77.14
2022-09-23T20:02:20.972Z,77.07
2022-09-23T20:05:10.816Z,77.30
2022-09-23T20:08:01.744Z,77.51
2022-09-23T20:10:48.311Z,77.54
2022-09-23T20:13:33.979Z,77.31
2022-09-23T20:16:20.131Z,77.46
2022-09-23T20:19:05.920Z,77.09
2022-09-23T20:22:11.550Z,76.92
2022-09-23T20:24:57.446Z,76.73
2022-09-23T20:27:43.073Z,76.91
2022-09-23T20:30:28.619Z,76.29
2022-09-23T20:33:16.924Z,76.37
2022-09-23T20:36:02.635Z,76.32
2022-09-23T20:38:47.863Z,75.90
2022-09-23T20:41:37.096Z,76.36
2022-09-23T20:44:23.087Z,76.18
2022-09-23T20:47:13.065Z,75.93
2022-09-23T20:49:58.589Z,76.18
2022-09-23T20:52:43.959Z,75.95
2022-09-23T20:55:30.027Z,76.36
2022-09-23T20:58:16.241Z,76.30
2022-09-23T21:01:11.888Z,76.04
2022-09-23T21:03:57.510Z,76.17
2022-09-23T21:06:43.166Z,76.48
2022-09-23T21:09:31.139Z,76.32
2022-09-23T21:12:16.770Z,75.93
2022-09-23T21:15:02.946Z,76.02
2022-09-23T21:17:48.573Z,76.00
2022-09-23T21:20:34.011Z,76.08
2022-09-23T21:23:21.832Z,75.65
2022-09-23T21:26:10.573Z,75.68
2022-09-23T21:28:59.675Z,75.14
2022-09-23T21:31:45.458Z,75.68
2022-09-23T21:34:32.099Z,75.57
2022-09-23T21:37:17.831Z,75.33
2022-09-23T21:40:22.079Z,75.23
2022-09-23T21:43:07.260Z,75.20
2022-09-23T21:45:59.482Z,75.28
2022-09-23T21:48:44.951Z,74.84
2022-09-23T21:51:37.609Z,74.81
2022-09-23T21:54:23.123Z,74.30
2022-09-23T21:57:08.889Z,74.14
2022-09-23T21:59:54.227Z,74.14
2022-09-23T22:02:39.972Z,73.76
2022-09-23T22:05:25.720Z,73.64
2022-09-23T22:08:11.057Z,74.05
2022-09-23T22:10:56.709Z,73.58
2022-09-23T22:13:42.076Z,73.77
2022-09-23T22:16:31.275Z,73.34
2022-09-23T22:19:17.009Z,73.79
2022-09-23T22:22:07.738Z,73.55
2022-09-23T22:24:53.277Z,73.54
2022-09-23T22:27:58.511Z,73.42
2022-09-23T22:31:03.049Z,73.67
2022-09-23T22:33:50.488Z,73.48
2022-09-23T22:36:35.763Z,73.55
2022-09-23T22:39:21.222Z,73.15
2022-09-23T22:42:07.398Z,72.99
2022-09-23T22:44:52.768Z,72.74
2022-09-23T22:47:39.889Z,72.60
2022-09-23T22:50:25.633Z,73.32
2022-09-23T22:53:11.088Z,72.58
2022-09-23T22:56:01.254Z,72.82
2022-09-23T22:58:47.373Z,72.83
2022-09-23T23:01:33.916Z,72.62
2022-09-23T23:04:19.856Z,72.24
2022-09-23T23:07:06.068Z,72.58
2022-09-23T23:09:52.387Z,72.32
2022-09-23T23:12:39.086Z,72.58
2022-09-23T23:15:24.434Z,72.48
2022-09-23T23:18:09.784Z,72.78
2022-09-23T23:20:55.131Z,72.38
2022-09-23T23:23:45.521Z,72.42
2022-09-23T23:26:33.085Z,72.39
2022-09-23T23:29:20.561Z,72.52
2022-09-23T23:32:07.707Z,71.60
2022-09-23T23:34:53.022Z,72.05
2022-09-23T23:37:38.687Z,71.68
2022-09-23T23:40:24.215Z,71.94
2022-09-23T23:43:09.642Z,71.61
2022-09-23T23:45:55.125Z,71.63
2022-09-23T23:48:41.869Z,71.69
2022-09-23T23:51:28.050Z,71.56
2022-09-23T23:54:15.125Z,72.01
2022-09-23T23:57:00.569Z,72.26
2022-09-23T23:59:47.033Z,72.36
